createdAt,value
2022-11-27T00:02:10.738Z,-1.30
2022-11-27T00:06:17.896Z,-1.20
2022-11-27T00:10:21.200Z,-1.30
2022-11-27T00:14:24.401Z,-1.10
2022-11-27T00:18:27.881Z,-1.10
2022-11-27T00:22:32.515Z,-1.40
2022-11-27T00:26:38.091Z,-1.20
2022-11-27T00:30:41.844Z,-1.20
2022-11-27T00:34:45.185Z,-1.20
2022-11-27T00:38:49.934Z,-1.20
2022-11-27T00:42:53.328Z,-1.20
2022-11-27T00:46:56.802Z,-1.30
2022-11-27T00:51:01.408Z,-1.10
2022-11-27T00:55:06.807Z,-1.10
2022-11-27T00:59:11.929Z,-1.40
2022-11-27T01:03:15.359Z,-1.40
2022-11-27T01:07:19.282Z,-1.50
2022-11-27T01:11:27.131Z,-1.50
2022-11-27T01:15:30.311Z,-1.40
2022-11-27T01:19:33.601Z,-1.10
2022-11-27T01:23:36.883Z,-0.90
2022-11-27T01:27:41.852Z,-1.00
2022-11-27T01:31:45.187Z,-0.70
2022-11-27T01:35:55.620Z,-0.70
2022-11-27T01:39:58.852Z,-0.70
2022-11-27T01:44:05.713Z,-0.60
2022-11-27T01:48:12.909Z,-0.40
2022-11-27T01:52:21.786Z,-0.40
2022-11-27T01:56:26.481Z,-0.20
2022-11-27T02:00:31.787Z,-0.30
2022-11-27T02:04:35.012Z,-0.20
2022-11-27T02:08:39.746Z,-0.40
2022-11-27T02:12:56.305Z,-0.30
2022-11-27T02:17:07.703Z,-0.50
2022-11-27T02:21:18.288Z,-0.50
2022-11-27T02:25:32.041Z,-0.70
2022-11-27T02:29:37.944Z,-0.80
2022-11-27T02:33:53.365Z,-1.10
2022-11-27T02:38:01.188Z,-0.80
2022-11-27T02:42:16.643Z,-1.20
2022-11-27T02:46:21.971Z,-1.20
2022-11-27T02:50:27.563Z,-1.30
2022-11-27T02:54:32.204Z,-1.30
2022-11-27T02:58:38.463Z,-1.30
2022-11-27T03:02:47.935Z,-1.40
2022-11-27T03:06:56.341Z,-1.30
2022-11-27T03:11:04.287Z,-1.40
2022-11-27T03:15:08.649Z,-1.30
2022-11-27T03:19:21.016Z,-1.30
2022-11-27T03:23:24.300Z,-0.90
2022-11-27T03:27:31.870Z,-0.90
2022-11-27T03:31:35.323Z,-0.80
2022-11-27T03:35:40.256Z,-0.80
2022-11-27T03:39:43.972Z,-0.70
2022-11-27T03:43:57.922Z,-0.70
2022-11-27T03:48:10.859Z,-0.80
2022-11-27T03:52:21.882Z,-1.20
2022-11-27T03:56:35.289Z,-1.30
2022-11-27T04:00:43.396Z,-1.30
2022-11-27T04:04:46.976Z,-1.50
2022-11-27T04:08:51.604Z,-1.60
2022-11-27T04:12:54.839Z,-1.50
2022-11-27T04:16:58.093Z,-1.40
2022-11-27T04:21:01.660Z,-1.30
2022-11-27T04:25:07.198Z,-1.40
2022-11-27T04:29:10.430Z,-1.20
2022-11-27T04:33:13.861Z,-1.50
2022-11-27T04:37:17.142Z,-1.50
2022-11-27T04:41:21.892Z,-1.50
2022-11-27T04:45:25.130Z,-1.40
2022-11-27T04:49:28.512Z,-1.50
2022-11-27T04:53:31.794Z,-1.60
2022-11-27T04:57:36.768Z,-1.90
2022-11-27T05:01:39.984Z,-1.50
2022-11-27T05:05:43.373Z,-1.60
2022-11-27T05:09:46.603Z,-1.50
2022-11-27T05:14:11.359Z,-1.60
2022-11-27T05:18:14.577Z,-1.60
2022-11-27T05:22:19.091Z,-1.60
2022-11-27T05:26:22.545Z,-1.40
2022-11-27T05:30:27.342Z,-1.60
2022-11-27T05:34:33.269Z,-1.60
2022-11-27T05:38:36.644Z,-1.60
2022-11-27T05:42:39.860Z,-1.70
2022-11-27T05:46:44.881Z,-1.70
2022-11-27T05:50:48.195Z,-1.80
2022-11-27T05:54:51.495Z,-1.90
2022-11-27T05:58:54.909Z,-2.00
2022-11-27T06:02:59.771Z,-2.00
2022-11-27T06:07:03.495Z,-2.20
2022-11-27T06:11:09.536Z,-2.10
2022-11-27T06:15:13.059Z,-2.10
2022-11-27T06:19:18.870Z,-1.80
2022-11-27T06:23:22.568Z,-1.80
2022-11-27T06:27:25.850Z,-2.00
2022-11-27T06:31:32.424Z,-2.00
2022-11-27T06:35:37.178Z,-2.00
2022-11-27T06:39:40.473Z,-1.80
2022-11-27T06:43:44.230Z,-2.10
2022-11-27T06:47:47.527Z,-2.00
2022-11-27T06:51:52.419Z,-2.20
2022-11-27T06:55:55.907Z,-2.10
2022-11-27T06:59:59.573Z,-2.00
2022-11-27T07:04:02.993Z,-2.00
2022-11-27T07:08:08.179Z,-2.00
2022-11-27T07:12:11.616Z,-1.90
2022-11-27T07:16:16.587Z,-2.20
2022-11-27T07:20:20.015Z,-1.90
2022-11-27T07:24:25.111Z,-1.80
2022-11-27T07:28:28.329Z,-2.00
2022-11-27T07:32:32.334Z,-1.90
2022-11-27T07:36:35.639Z,-1.80
2022-11-27T07:40:41.041Z,-1.80
2022-11-27T07:44:55.421Z,-1.60
2022-11-27T07:49:03.595Z,-1.60
2022-11-27T07:53:06.850Z,-1.40
2022-11-27T07:57:25.816Z,-1.50
2022-11-27T08:01:33.498Z,-1.20
2022-11-27T08:05:38.088Z,-1.30
2022-11-27T08:09:41.425Z,-1.10
2022-11-27T08:13:46.173Z,-0.80
2022-11-27T08:17:56.947Z,-0.70
2022-11-27T08:22:00.364Z,-0.60
2022-11-27T08:31:20.908Z,-0.30
2022-11-27T08:40:26.725Z,-0.20
2022-11-27T08:44:30.699Z,-0.10
2022-11-27T08:48:47.243Z,0.20
2022-11-27T08:52:51.148Z,0.40
2022-11-27T08:56:54.886Z,0.80
2022-11-27T09:00:59.437Z,0.90
2022-11-27T09:05:06.819Z,0.70
2022-11-27T09:09:11.174Z,0.50
2022-11-27T09:13:15.221Z,1.00
2022-11-27T09:17:18.726Z,1.10
2022-11-27T09:21:27.248Z,1.20
2022-11-27T09:25:30.575Z,1.40
2022-11-27T09:29:38.040Z,1.50
2022-11-27T09:33:42.810Z,1.60
2022-11-27T09:37:47.550Z,2.10
2022-11-27T09:41:54.595Z,3.40
2022-11-27T09:46:04.204Z,3.60
2022-11-27T09:50:16.409Z,3.70
2022-11-27T09:54:27.376Z,4.20
2022-11-27T09:58:39.027Z,4.60
2022-11-27T10:02:43.299Z,5.20
2022-11-27T10:07:03.169Z,5.70
2022-11-27T10:11:18.308Z,6.40
2022-11-27T10:15:42.309Z,7.00
2022-11-27T10:19:53.432Z,7.70
2022-11-27T10:24:04.000Z,8.70
2022-11-27T10:28:21.505Z,10.20
2022-11-27T10:32:54.039Z,10.80
2022-11-27T10:36:53.179Z,11.00
2022-11-27T10:41:28.453Z,10.60
2022-11-27T10:45:44.408Z,11.30
2022-11-27T10:50:26.133Z,11.50
2022-11-27T10:54:35.055Z,13.10
2022-11-27T10:58:44.192Z,13.80
2022-11-27T11:02:49.209Z,14.80
2022-11-27T11:06:52.830Z,16.40
2022-11-27T11:11:00.881Z,16.80
2022-11-27T11:15:13.180Z,17.10
2022-11-27T11:19:57.358Z,18.10
2022-11-27T11:24:02.897Z,19.00
2022-11-27T11:28:18.232Z,17.90
2022-11-27T11:32:26.955Z,17.10
2022-11-27T11:36:42.812Z,14.40
2022-11-27T11:41:00.703Z,11.60
2022-11-27T11:45:06.815Z,9.80
2022-11-27T11:49:19.578Z,8.90
2022-11-27T11:53:33.337Z,8.30
2022-11-27T11:57:57.784Z,7.80
2022-11-27T12:02:26.618Z,7.40
2022-11-27T12:06:39.280Z,7.20
2022-11-27T12:10:54.939Z,7.20
2022-11-27T12:15:05.014Z,7.10
2022-11-27T12:19:35.023Z,8.00
2022-11-27T12:24:03.231Z,11.60
2022-11-27T12:28:20.613Z,14.40
2022-11-27T12:32:45.611Z,16.30
2022-11-27T12:37:13.617Z,14.90
2022-11-27T12:41:32.807Z,14.70
2022-11-27T12:45:43.750Z,17.90
2022-11-27T12:49:50.464Z,18.80
2022-11-27T12:54:00.362Z,19.40
2022-11-27T12:58:07.364Z,20.00
2022-11-27T13:02:24.989Z,19.60
2022-11-27T13:06:32.341Z,20.10
2022-11-27T13:10:40.990Z,20.90
2022-11-27T13:14:51.201Z,17.60
2022-11-27T13:19:02.878Z,14.30
2022-11-27T13:23:06.363Z,11.70
2022-11-27T13:27:15.772Z,9.60
2022-11-27T13:31:22.596Z,8.50
2022-11-27T13:35:31.923Z,7.70
2022-11-27T13:39:38.046Z,7.20
2022-11-27T13:43:45.090Z,6.70
2022-11-27T13:47:50.788Z,6.30
2022-11-27T13:52:06.942Z,6.10
2022-11-27T13:56:11.195Z,5.80
2022-11-27T14:00:16.861Z,5.50
2022-11-27T14:04:20.201Z,5.20
2022-11-27T14:08:28.056Z,5.00
2022-11-27T14:12:34.074Z,4.80
2022-11-27T14:16:39.758Z,4.60
2022-11-27T14:20:52.467Z,4.40
2022-11-27T14:24:58.290Z,4.30
2022-11-27T14:29:02.250Z,4.20
2022-11-27T14:33:06.199Z,4.10
2022-11-27T14:37:24.854Z,3.90
2022-11-27T14:41:31.244Z,3.80
2022-11-27T14:45:36.400Z,3.70
2022-11-27T14:49:42.191Z,3.60
2022-11-27T14:53:48.014Z,3.50
2022-11-27T14:57:54.076Z,3.40
2022-11-27T15:02:03.176Z,3.20
2022-11-27T15:06:09.327Z,3.10
2022-11-27T15:10:26.421Z,2.90
2022-11-27T15:14:33.276Z,2.60
2022-11-27T15:18:41.789Z,2.50
2022-11-27T15:22:50.787Z,2.30
2022-11-27T15:26:55.708Z,2.30
2022-11-27T15:31:01.837Z,2.10
2022-11-27T15:35:16.755Z,2.00
2022-11-27T15:39:24.222Z,1.80
2022-11-27T15:43:28.578Z,1.70
2022-11-27T15:47:37.651Z,1.50
2022-11-27T15:51:41.172Z,1.40
2022-11-27T15:55:44.937Z,1.40
2022-11-27T15:59:49.860Z,1.20
2022-11-27T16:03:55.003Z,1.10
2022-11-27T16:07:59.930Z,0.90
2022-11-27T16:12:07.532Z,0.90
2022-11-27T16:16:11.893Z,0.80
2022-11-27T16:20:18.274Z,0.50
2022-11-27T16:24:22.694Z,0.70
2022-11-27T16:28:27.888Z,0.70
2022-11-27T16:32:33.550Z,0.80
2022-11-27T16:36:41.927Z,0.60
2022-11-27T16:40:47.227Z,0.50
2022-11-27T16:44:51.732Z,0.70
2022-11-27T16:48:59.051Z,0.60
2022-11-27T16:53:08.046Z,0.50
2022-11-27T16:57:14.414Z,0.70
2022-11-27T17:01:20.722Z,0.50
2022-11-27T17:05:25.164Z,0.40
2022-11-27T17:09:32.971Z,0.40
2022-11-27T17:13:37.759Z,0.50
2022-11-27T17:17:42.981Z,0.40
2022-11-27T17:21:47.916Z,0.40
2022-11-27T17:25:54.266Z,0.30
2022-11-27T17:29:58.783Z,0.30
2022-11-27T17:34:05.623Z,0.40
2022-11-27T17:38:09.344Z,0.60
2022-11-27T17:42:21.060Z,0.60
2022-11-27T17:46:28.287Z,0.60
2022-11-27T17:50:33.728Z,0.50
2022-11-27T17:54:38.892Z,0.50
2022-11-27T17:58:45.419Z,0.40
2022-11-27T18:02:50.317Z,0.50
2022-11-27T18:06:55.019Z,0.50
2022-11-27T18:10:59.868Z,0.40
2022-11-27T18:15:06.793Z,0.60
2022-11-27T18:19:13.891Z,0.50
2022-11-27T18:23:21.984Z,0.50
2022-11-27T18:27:27.082Z,0.50
2022-11-27T18:31:36.353Z,0.40
2022-11-27T18:35:44.895Z,0.40
2022-11-27T18:39:52.638Z,0.40
2022-11-27T18:43:57.246Z,0.20
2022-11-27T18:48:03.372Z,0.10
2022-11-27T18:52:10.697Z,0.10
2022-11-27T18:56:17.824Z,0.10
2022-11-27T19:00:23.542Z,0.50
2022-11-27T19:04:30.755Z,0.30
2022-11-27T19:08:36.656Z,0.40
2022-11-27T19:12:42.104Z,0.50
2022-11-27T19:16:54.479Z,0.70
2022-11-27T19:21:11.828Z,0.60
2022-11-27T19:25:19.363Z,0.70
2022-11-27T19:29:32.436Z,0.60
2022-11-27T19:33:41.127Z,0.70
2022-11-27T19:37:51.319Z,0.80
2022-11-27T19:41:58.553Z,0.80
2022-11-27T19:46:05.065Z,1.00
2022-11-27T19:50:13.386Z,1.00
2022-11-27T19:54:26.299Z,1.10
2022-11-27T19:58:32.432Z,0.90
2022-11-27T20:02:41.617Z,1.00
2022-11-27T20:06:47.551Z,1.10
2022-11-27T20:10:59.297Z,0.90
2022-11-27T20:15:06.550Z,1.10
2022-11-27T20:19:16.789Z,1.20
2022-11-27T20:23:25.769Z,1.50
2022-11-27T20:27:32.130Z,1.40
2022-11-27T20:31:39.654Z,1.40
2022-11-27T20:35:44.514Z,1.50
2022-11-27T20:39:49.400Z,1.40
2022-11-27T20:43:59.582Z,1.50
2022-11-27T20:48:05.036Z,1.50
2022-11-27T20:52:12.085Z,1.60
2022-11-27T20:56:18.241Z,1.60
2022-11-27T21:00:26.318Z,1.60
2022-11-27T21:04:30.353Z,1.70
2022-11-27T21:08:34.383Z,1.60
2022-11-27T21:12:38.760Z,1.60
2022-11-27T21:16:47.618Z,1.70
2022-11-27T21:20:51.780Z,1.70
2022-11-27T21:24:57.450Z,1.80
2022-11-27T21:29:01.258Z,1.80
2022-11-27T21:33:06.034Z,1.80
2022-11-27T21:37:09.405Z,1.90
2022-11-27T21:41:14.112Z,1.90
2022-11-27T21:45:17.616Z,2.00
2022-11-27T21:49:22.663Z,2.00
2022-11-27T21:53:26.279Z,2.00
2022-11-27T21:57:29.489Z,2.10
2022-11-27T22:01:32.962Z,2.20
2022-11-27T22:05:37.625Z,2.20
2022-11-27T22:09:41.051Z,2.20
2022-11-27T22:13:44.385Z,2.20
2022-11-27T22:17:48.654Z,2.20
2022-11-27T22:21:53.265Z,2.10
2022-11-27T22:25:56.748Z,2.10
2022-11-27T22:30:00.039Z,2.20
2022-11-27T22:34:03.506Z,2.20
2022-11-27T22:38:08.112Z,2.20
2022-11-27T22:42:12.199Z,2.20
2022-11-27T22:46:18.193Z,2.20
2022-11-27T22:50:21.584Z,2.20
2022-11-27T22:54:26.289Z,2.20
2022-11-27T22:58:29.661Z,2.20
2022-11-27T23:02:33.031Z,2.20
2022-11-27T23:06:37.121Z,2.20
2022-11-27T23:10:41.873Z,2.20
2022-11-27T23:14:45.181Z,2.30
2022-11-27T23:18:50.944Z,2.30
2022-11-27T23:22:54.153Z,2.20
2022-11-27T23:26:58.877Z,2.20
2022-11-27T23:31:28.524Z,2.10
2022-11-27T23:35:29.414Z,2.20
2022-11-27T23:39:32.670Z,2.10
2022-11-27T23:43:37.443Z,2.10
2022-11-27T23:47:40.852Z,2.00
2022-11-27T23:51:44.401Z,2.00
2022-11-27T23:55:47.792Z,2.10
2022-11-27T23:59:52.586Z,1.90
